DATOS DEL TIEMPO

AYER
Time Temp. Dewp. Hum. Bar.
00:14 1.7 -0.1 88 1010.5
00:23 1.7 -0.1 88 1010.3
00:34 1.8 0.2 89 1010.4
00:44 1.8 0.2 89 1010.4
00:54 1.8 0 88 1010.3
01:04 1.9 0.1 88 1010.3
01:14 1.8 0 88 1010.3
01:24 1.9 0.1 88 1010.1
01:34 1.9 0.1 88 1010.3
01:44 1.9 0.1 88 1010.1
01:54 1.9 0 87 1010
02:04 1.9 0 87 1009.9
02:14 1.9 0 87 1009.9
02:24 1.9 0 87 1009.9
02:34 1.9 0 87 1009.9
02:44 1.9 0.1 88 1009.9
02:55 1.8 0 88 1009.8
03:04 1.8 0 88 1009.7
03:14 1.8 0 88 1009.7
03:25 1.8 0 88 1009.6
03:35 1.8 0 88 1009.7
03:44 1.8 0 88 1009.6
03:54 1.8 0.2 89 1009.6
04:05 1.8 0.2 89 1009.6
04:15 1.8 0.2 89 1009.6
04:24 1.8 0.2 89 1009.6
04:35 1.8 0.2 89 1009.4
04:45 1.8 0.3 90 1009.3
04:55 1.7 0.2 90 1009.4
05:05 1.7 0.2 90 1009.4
05:15 1.7 0.2 90 1009.3
05:25 1.6 0.3 91 1009.4
05:35 1.6 0.3 91 1009.3
05:45 1.6 0.3 91 1009.4
05:55 1.6 0.3 91 1009.4
06:05 1.6 0.3 91 1009.4
06:15 1.6 0.3 91 1009.4
06:25 1.6 0.3 91 1009.6
06:35 1.6 0.4 92 1009.6
06:45 1.6 0.3 91 1009.6
06:55 1.6 0.3 91 1009.6
07:05 1.6 0.3 91 1009.7
07:15 1.6 0.3 91 1009.7
07:26 1.5 0 90 1009.9
07:35 1.5 0 90 1010
07:45 1.5 0 90 1010.3
07:55 1.5 -0.1 89 1010.4
08:06 1.5 -0.1 89 1010.5
08:15 1.6 0 89 1010.5
08:25 1.6 -0.1 88 1010.6
08:36 1.7 -0.2 87 1010.6
08:46 1.8 -0.1 87 1010.6
08:55 1.9 0 87 1010.7
09:06 1.9 -0.2 86 1010.8
09:16 2 -0.1 86 1011
09:26 2 0.1 87 1011.1
09:35 2 0.1 87 1011.1
09:46 2 0.1 87 1011.1
09:56 2.1 0.3 88 1011.2
10:05 2.1 0.3 88 1011.2
10:16 2.1 0.3 88 1011.4
10:26 2.2 0.6 89 1011.4
10:36 2.2 0.6 89 1011.4
10:45 2.2 0.7 90 1011.4
10:56 2.3 0.8 90 1011.4
11:06 2.3 1 91 1011.5
11:16 2.4 1.1 91 1011.5
11:26 2.5 1.2 91 1011.7
11:36 2.6 1.4 92 1011.7
11:46 2.6 1.4 92 1011.7
11:56 2.7 1.5 92 1011.7
12:06 2.8 1.6 92 1011.7
12:16 3.1 1.9 92 1011.5
12:26 3.3 2.1 92 1011.5
12:37 3.6 2.4 92 1011.5
12:46 3.7 2.5 92 1011.4
12:56 3.9 2.6 91 1011.3
13:06 4.1 2.6 90 1011.3
13:16 4.3 2.7 89 1011.3
13:26 4.5 2.7 88 1011.3
13:36 4.6 2.6 87 1011.3
13:47 4.7 2.6 86 1011.4
13:56 4.8 2.7 86 1011.4
14:06 5.1 2.5 83 1011.4
14:17 5.3 2.5 82 1011.3
14:27 5.5 2.5 81 1011.2
14:36 5.6 2.6 81 1011.3
14:46 5.6 2.6 81 1011.3
14:57 5.6 2.6 81 1011.3
15:07 5.5 2.5 81 1011.2
15:16 5.4 2.2 80 1011.3
15:27 5.4 2.4 81 1011.2
15:37 5.3 2.1 80 1011.1
15:46 5.3 2.3 81 1011.2
15:57 5.2 2.2 81 1011.2
16:07 5.1 2.3 82 1011.3
16:17 5.2 2.2 81 1011.3
16:26 5.1 2.1 81 1011.4
16:37 5.1 2.1 81 1011.4
16:47 5.1 2.3 82 1011.4
16:57 5.1 2.3 82 1011.5
17:07 5.1 2.1 81 1011.7
17:17 5.1 2.1 81 1011.7
17:27 5.1 1.8 79 1011.8
17:37 5.2 1.7 78 1011.9
17:47 5.3 1.6 77 1012
17:57 5.4 1.3 75 1012
18:07 5.4 1.1 74 1012.1
18:18 5.3 0.7 72 1012.2
18:27 5.2 0.2 70 1012.2
18:37 5.1 0.3 71 1012.4
18:47 4.9 0.1 71 1012.4
18:57 4.8 0 71 1012.5
19:07 4.7 0.1 72 1012.5
19:17 4.5 -0.3 71 1012.6
19:28 4.4 0 73 1012.8
19:37 4.2 -0.2 73 1012.8
19:47 4.1 0.1 75 1012.8
19:57 3.9 0.1 76 1013.1
20:08 3.7 0 77 1012.9
20:17 3.6 0 77 1013.1
20:27 3.5 0 78 1013.4
20:38 3.3 -0.1 78 1013.3
20:47 3.3 -0.1 78 1013.4
20:57 3.2 -0.2 78 1013.4
21:08 3.1 -0.3 78 1013.5
21:18 3 -0.4 78 1013.4
21:26 2.9 -0.5 78 1013.4
21:35 2.9 -0.5 78 1013.5
21:45 2.9 -0.5 78 1013.6
21:55 2.8 -0.7 77 1013.6
22:05 2.8 -0.7 77 1013.5
22:15 2.8 -0.7 77 1013.6
22:25 2.8 -0.7 77 1013.5
22:36 2.7 -0.8 77 1013.5
22:45 2.7 -0.8 77 1013.4
22:55 2.7 -1 76 1013.4
23:05 2.6 -1.1 76 1013.5
23:16 2.6 -1.1 76 1013.5
23:25 2.6 -1.1 76 1013.4
23:35 2.5 -1.3 75 1013.6
23:46 2.5 -1.1 76 1013.5
23:56 2.5 -1.1 76 1013.6

ESTADÍSTICA DEL DÍA

2020-04-04
TEMPERATURA
NORMAL
3.0
ALTO
5.6
14:36
BAJA
1.5
07:26
PRESIÓN
NORMAL
1011.3
ALTO
1013.6
21:45
BAJA
1009.3
04:45
PUNTO DE ROCÍO
NORMAL
0.6
ALTO
2.7
13:16
BAJA
-1.3
23:35
HUMEDAD
NORMAL
84
ALTO
92
06:35
BAJA
70
18:27
TEMPERATURA (°C)
BAJA
1.5
ALTO
5.6
NORMAL
3.0
PRESIÓN (hpa)
BAJA
1009.3
ALTO
1013.6
NORMAL
1011.3
DEVICE